createdAt,value
2017-06-04T00:00:19.835Z,12.53
2017-06-04T00:02:47.385Z,11.00
2017-06-04T00:05:14.951Z,13.00
2017-06-04T00:07:42.500Z,11.43
2017-06-04T00:10:10.044Z,12.40
2017-06-04T00:12:37.612Z,12.93
2017-06-04T00:15:05.152Z,12.20
2017-06-04T00:17:32.695Z,12.10
2017-06-04T00:20:00.660Z,12.53
2017-06-04T00:22:28.609Z,13.40
2017-06-04T00:24:56.156Z,12.73
2017-06-04T00:27:23.724Z,13.13
2017-06-04T00:29:51.267Z,13.03
2017-06-04T00:32:18.816Z,11.93
2017-06-04T00:34:46.383Z,11.97
2017-06-04T00:37:13.923Z,12.27
2017-06-04T00:39:41.471Z,14.57
2017-06-04T00:42:09.435Z,13.60
2017-06-04T00:44:37.397Z,13.20
2017-06-04T00:47:05.336Z,14.23
2017-06-04T00:49:32.908Z,12.20
2017-06-04T00:52:00.457Z,13.23
2017-06-04T00:54:27.996Z,12.97
2017-06-04T00:56:55.559Z,13.20
2017-06-04T00:59:23.114Z,13.03
2017-06-04T01:01:50.646Z,13.47
2017-06-04T01:04:18.224Z,12.03
2017-06-04T01:06:45.772Z,13.77
2017-06-04T01:09:13.316Z,12.90
2017-06-04T01:11:41.275Z,13.67
2017-06-04T01:14:08.829Z,13.50
2017-06-04T01:16:36.381Z,12.90
2017-06-04T01:19:03.960Z,14.17
2017-06-04T01:21:31.500Z,13.27
2017-06-04T01:23:59.045Z,12.67
2017-06-04T01:26:26.620Z,12.23
2017-06-04T01:28:54.175Z,11.97
2017-06-04T01:31:21.715Z,13.87
2017-06-04T01:33:49.280Z,11.90
2017-06-04T01:36:16.824Z,10.90
2017-06-04T01:38:44.368Z,11.77
2017-06-04T01:41:12.334Z,12.50
2017-06-04T01:43:40.278Z,11.20
2017-06-04T01:46:07.820Z,11.50
2017-06-04T01:48:35.384Z,11.60
2017-06-04T01:51:02.945Z,12.53
2017-06-04T01:53:30.480Z,12.03
2017-06-04T01:55:58.052Z,11.13
2017-06-04T01:58:25.600Z,11.70
2017-06-04T02:00:53.152Z,12.50
2017-06-04T02:03:20.731Z,12.03
2017-06-04T02:05:48.280Z,11.13
2017-06-04T02:08:15.819Z,11.10
2017-06-04T02:10:43.379Z,12.00
2017-06-04T02:13:10.928Z,11.67
2017-06-04T02:15:38.468Z,12.37
2017-06-04T02:18:06.035Z,13.10
2017-06-04T02:20:33.575Z,12.70
2017-06-04T02:23:01.119Z,13.37
2017-06-04T02:25:28.775Z,13.97
2017-06-04T02:27:56.365Z,14.10
2017-06-04T02:30:23.918Z,13.10
2017-06-04T02:32:51.905Z,13.57
2017-06-04T02:35:19.460Z,14.10
2017-06-04T02:37:47.005Z,14.93
2017-06-04T02:40:14.585Z,13.27
2017-06-04T02:42:42.132Z,13.60
2017-06-04T02:45:09.672Z,13.03
2017-06-04T02:47:37.245Z,13.10
2017-06-04T02:50:04.788Z,12.03
2017-06-04T02:52:32.328Z,13.93
2017-06-04T02:54:59.892Z,13.20
2017-06-04T02:57:27.444Z,14.63
2017-06-04T02:59:55.008Z,13.07
2017-06-04T03:02:22.973Z,14.50
2017-06-04T03:04:50.929Z,14.70
2017-06-04T03:07:18.473Z,14.37
2017-06-04T03:09:46.040Z,14.53
2017-06-04T03:12:13.588Z,13.70
2017-06-04T03:14:41.137Z,13.13
2017-06-04T03:17:08.709Z,14.20
2017-06-04T03:19:36.251Z,14.60
2017-06-04T03:22:03.806Z,16.10
2017-06-04T03:24:31.371Z,15.17
2017-06-04T03:26:58.920Z,15.67
2017-06-04T03:29:26.460Z,16.97
2017-06-04T03:31:54.027Z,17.60
2017-06-04T03:34:21.576Z,15.37
2017-06-04T03:36:49.516Z,12.37
2017-06-04T03:39:17.080Z,8.73
2017-06-04T03:41:44.624Z,9.83
2017-06-04T03:44:12.167Z,9.67
2017-06-04T03:46:40.052Z,8.60
2017-06-04T03:49:07.583Z,8.77
2017-06-04T03:51:35.126Z,6.20
2017-06-04T03:54:03.087Z,8.00
2017-06-04T03:56:31.024Z,5.70
2017-06-04T03:58:58.571Z,6.20
2017-06-04T04:01:26.139Z,5.63
2017-06-04T04:03:53.691Z,5.00
2017-06-04T04:06:21.228Z,5.50
2017-06-04T04:08:48.792Z,5.00
2017-06-04T04:11:16.332Z,5.37
2017-06-04T04:13:44.281Z,5.93
2017-06-04T04:16:11.839Z,5.63
2017-06-04T04:18:39.380Z,6.33
2017-06-04T04:21:06.924Z,7.17
2017-06-04T04:23:34.484Z,6.60
2017-06-04T04:26:02.020Z,6.33
2017-06-04T04:28:29.564Z,7.33
2017-06-04T04:30:57.528Z,6.80
2017-06-04T04:33:25.468Z,9.00
2017-06-04T04:35:53.004Z,7.70
2017-06-04T04:38:20.572Z,8.53
2017-06-04T04:40:48.116Z,7.60
2017-06-04T04:43:15.648Z,9.13
2017-06-04T04:45:43.211Z,9.80
2017-06-04T04:48:10.764Z,10.70
2017-06-04T04:50:38.705Z,10.47
2017-06-04T04:53:06.268Z,10.60
2017-06-04T04:55:33.808Z,10.77
2017-06-04T04:58:01.361Z,12.37
2017-06-04T05:00:28.924Z,11.60
2017-06-04T05:02:56.469Z,10.53
2017-06-04T05:05:24.017Z,10.50
2017-06-04T05:07:51.584Z,10.27
2017-06-04T05:10:19.133Z,8.40
2017-06-04T05:12:46.676Z,8.10
2017-06-04T05:15:14.644Z,5.83
2017-06-04T05:17:42.572Z,6.00
2017-06-04T05:20:10.112Z,6.00
2017-06-04T05:22:37.693Z,5.10
2017-06-04T05:25:05.235Z,4.97
2017-06-04T05:27:38.556Z,5.20
2017-06-04T05:30:06.092Z,5.47
2017-06-04T05:32:33.637Z,5.40
2017-06-04T05:35:01.212Z,6.40
2017-06-04T05:37:28.748Z,6.00
2017-06-04T05:39:56.283Z,7.10
2017-06-04T05:42:23.843Z,7.10
2017-06-04T05:44:51.408Z,8.60
2017-06-04T05:47:19.356Z,7.57
2017-06-04T05:49:46.901Z,7.23
2017-06-04T05:52:14.468Z,7.53
2017-06-04T05:54:42.004Z,7.93
2017-06-04T05:57:09.543Z,7.50
2017-06-04T05:59:37.107Z,7.23
2017-06-04T06:02:04.657Z,7.10
2017-06-04T06:04:32.594Z,7.20
2017-06-04T06:07:00.162Z,7.27
2017-06-04T06:09:27.701Z,6.37
2017-06-04T06:11:55.264Z,7.60
2017-06-04T06:14:22.820Z,6.40
2017-06-04T06:16:50.369Z,7.10
2017-06-04T06:19:17.913Z,7.30
2017-06-04T06:21:45.481Z,7.10
2017-06-04T06:24:13.024Z,6.77
2017-06-04T06:26:40.961Z,7.57
2017-06-04T06:29:08.542Z,6.40
2017-06-04T06:31:36.482Z,6.00
2017-06-04T06:34:04.030Z,7.03
2017-06-04T06:36:31.592Z,6.30
2017-06-04T06:38:59.140Z,6.90
2017-06-04T06:41:26.676Z,6.87
2017-06-04T06:43:54.244Z,6.60
2017-06-04T06:46:21.785Z,6.70
2017-06-04T06:48:49.740Z,6.80
2017-06-04T06:51:17.697Z,7.33
2017-06-04T06:53:45.253Z,6.90
2017-06-04T06:56:12.824Z,6.10
2017-06-04T06:58:40.359Z,7.10
2017-06-04T07:01:07.909Z,6.03
2017-06-04T07:03:35.463Z,6.80
2017-06-04T07:06:03.019Z,6.70
2017-06-04T07:08:30.563Z,6.40
2017-06-04T07:10:58.128Z,6.60
2017-06-04T07:13:25.668Z,5.73
2017-06-04T07:15:53.616Z,6.17
2017-06-04T07:18:21.227Z,5.77
2017-06-04T07:20:48.801Z,6.27
2017-06-04T07:23:16.340Z,6.03
2017-06-04T07:25:43.910Z,6.20
2017-06-04T07:28:11.452Z,5.90
2017-06-04T07:30:38.995Z,6.00
2017-06-04T07:33:06.955Z,7.30
2017-06-04T07:35:34.501Z,6.00
2017-06-04T07:38:02.040Z,6.67
2017-06-04T07:40:29.612Z,5.90
2017-06-04T07:42:57.154Z,5.10
2017-06-04T07:45:24.692Z,5.80
2017-06-04T07:47:52.251Z,5.47
2017-06-04T07:50:19.758Z,5.60
2017-06-04T07:52:47.729Z,5.90
2017-06-04T07:55:15.283Z,5.90
2017-06-04T07:57:42.825Z,6.40
2017-06-04T08:00:10.351Z,5.57
2017-06-04T08:02:37.925Z,6.37
2017-06-04T08:05:05.472Z,5.27
2017-06-04T08:07:33.015Z,5.20
2017-06-04T08:10:00.650Z,5.97
2017-06-04T08:12:28.192Z,6.13
2017-06-04T08:14:55.733Z,6.40
2017-06-04T08:17:23.296Z,5.97
2017-06-04T08:19:50.840Z,6.07
2017-06-04T08:22:18.776Z,6.17
2017-06-04T08:24:46.352Z,6.57
2017-06-04T08:27:13.896Z,5.97
2017-06-04T08:29:41.441Z,6.80
2017-06-04T08:32:09.009Z,6.37
2017-06-04T08:34:36.549Z,7.27
2017-06-04T08:37:04.083Z,6.30
2017-06-04T08:39:31.656Z,6.53
2017-06-04T08:41:59.192Z,7.93
2017-06-04T08:44:27.144Z,6.80
2017-06-04T08:46:54.685Z,6.07
2017-06-04T08:49:22.228Z,4.80
2017-06-04T08:51:50.656Z,5.20
2017-06-04T08:54:18.596Z,4.77
2017-06-04T08:56:46.136Z,4.33
2017-06-04T08:59:13.729Z,5.07
2017-06-04T09:01:41.288Z,4.30
2017-06-04T09:04:08.861Z,4.90
2017-06-04T09:06:36.445Z,4.10
2017-06-04T09:09:04.382Z,4.57
2017-06-04T09:11:31.985Z,5.57
2017-06-04T09:13:59.540Z,5.17
2017-06-04T09:16:27.104Z,5.57
2017-06-04T09:18:55.064Z,5.13
2017-06-04T09:21:22.627Z,4.83
2017-06-04T09:23:50.564Z,5.00
2017-06-04T09:26:18.104Z,5.37
2017-06-04T09:28:45.663Z,4.70
2017-06-04T09:31:13.223Z,4.40
2017-06-04T09:33:40.768Z,4.93
2017-06-04T09:36:08.309Z,4.37
2017-06-04T09:38:35.872Z,4.17
2017-06-04T09:41:03.416Z,3.83
2017-06-04T09:43:31.376Z,4.40
2017-06-04T09:45:58.965Z,3.90
2017-06-04T09:48:26.507Z,3.90
2017-06-04T09:50:54.075Z,4.50
2017-06-04T09:53:22.017Z,4.20
2017-06-04T09:55:49.579Z,4.40
2017-06-04T09:58:17.144Z,4.20
2017-06-04T10:00:44.704Z,4.33
2017-06-04T10:03:12.268Z,4.50
2017-06-04T10:05:39.819Z,5.10
2017-06-04T10:08:07.381Z,4.50
2017-06-04T10:10:34.943Z,4.07
2017-06-04T10:13:02.472Z,4.57
2017-06-04T10:15:30.032Z,3.57
2017-06-04T10:17:57.566Z,3.97
2017-06-04T10:20:25.137Z,4.20
2017-06-04T10:22:52.693Z,4.10
2017-06-04T10:25:20.257Z,4.77
2017-06-04T10:27:47.804Z,4.70
2017-06-04T10:30:15.765Z,4.90
2017-06-04T10:32:43.769Z,5.70
2017-06-04T10:35:11.316Z,5.97
2017-06-04T10:37:38.869Z,5.60
2017-06-04T10:40:06.833Z,6.63
2017-06-04T10:42:34.801Z,6.20
2017-06-04T10:45:02.741Z,6.10
2017-06-04T10:47:30.282Z,6.30
2017-06-04T10:49:57.866Z,6.40
2017-06-04T10:52:25.421Z,6.00
2017-06-04T10:54:52.964Z,6.80
2017-06-04T10:57:20.532Z,6.50
2017-06-04T10:59:48.072Z,7.00
2017-06-04T11:02:15.611Z,7.00
2017-06-04T11:04:43.162Z,7.20
2017-06-04T11:07:11.105Z,6.63
2017-06-04T11:09:38.649Z,6.90
2017-06-04T11:12:06.205Z,8.00
2017-06-04T11:14:33.748Z,8.70
2017-06-04T11:17:01.294Z,9.70
2017-06-04T11:19:28.860Z,9.77
2017-06-04T11:21:56.401Z,9.00
2017-06-04T11:24:23.972Z,8.97
2017-06-04T11:26:51.524Z,9.50
2017-06-04T11:29:19.469Z,10.10
2017-06-04T11:31:47.034Z,9.27
2017-06-04T11:34:14.625Z,10.13
2017-06-04T11:36:42.173Z,9.50
2017-06-04T11:39:10.140Z,11.17
2017-06-04T11:41:38.094Z,10.67
2017-06-04T11:44:05.623Z,9.83
2017-06-04T11:46:33.202Z,10.07
2017-06-04T11:49:00.748Z,9.50
2017-06-04T11:51:28.294Z,9.23
2017-06-04T11:53:55.868Z,9.17
2017-06-04T11:56:23.412Z,8.60
2017-06-04T11:58:50.956Z,8.80
2017-06-04T12:01:18.520Z,9.07
2017-06-04T12:03:46.068Z,9.10
2017-06-04T12:06:13.609Z,9.80
2017-06-04T12:08:41.585Z,9.60
2017-06-04T12:11:09.149Z,9.70
2017-06-04T12:13:37.089Z,9.70
2017-06-04T12:16:04.623Z,9.87
2017-06-04T12:18:32.190Z,9.50
2017-06-04T12:20:59.737Z,8.37
2017-06-04T12:23:27.283Z,8.80
2017-06-04T12:25:54.849Z,8.90
2017-06-04T12:28:22.392Z,7.87
2017-06-04T12:30:50.324Z,9.80
2017-06-04T12:33:18.720Z,8.67
2017-06-04T12:35:46.269Z,8.90
2017-06-04T12:38:13.810Z,8.43
2017-06-04T12:40:41.386Z,8.53
2017-06-04T12:43:08.930Z,9.93
2017-06-04T12:45:36.468Z,8.90
2017-06-04T12:48:04.046Z,8.90
2017-06-04T12:50:31.588Z,8.33
2017-06-04T12:52:59.137Z,9.20
2017-06-04T12:55:26.715Z,8.97
2017-06-04T12:57:54.243Z,8.10
2017-06-04T13:00:21.788Z,8.50
2017-06-04T13:02:49.352Z,7.80
2017-06-04T13:05:17.293Z,7.93
2017-06-04T13:07:44.833Z,8.10
2017-06-04T13:10:12.401Z,6.70
2017-06-04T13:12:39.958Z,7.80
2017-06-04T13:15:07.500Z,7.63
2017-06-04T13:17:35.068Z,8.03
2017-06-04T13:20:02.608Z,7.70
2017-06-04T13:22:30.152Z,7.90
2017-06-04T13:24:58.116Z,8.13
2017-06-04T13:27:25.658Z,7.50
2017-06-04T13:29:53.204Z,8.60
2017-06-04T13:32:20.769Z,8.70
2017-06-04T13:34:48.308Z,8.70
2017-06-04T13:37:15.848Z,7.53
2017-06-04T13:39:43.416Z,6.90
2017-06-04T13:42:10.969Z,7.13
2017-06-04T13:44:38.508Z,7.60
2017-06-04T13:47:06.062Z,7.90
2017-06-04T13:49:33.624Z,7.33
2017-06-04T13:52:01.202Z,7.10
2017-06-04T13:54:28.769Z,7.20
2017-06-04T13:56:56.320Z,7.70
2017-06-04T13:59:24.272Z,7.30
2017-06-04T14:01:51.839Z,7.70
2017-06-04T14:04:19.798Z,7.13
2017-06-04T14:06:47.336Z,7.47
2017-06-04T14:09:14.904Z,7.87
2017-06-04T14:11:42.443Z,7.27
2017-06-04T14:14:09.991Z,6.70
2017-06-04T14:16:37.558Z,5.87
2017-06-04T14:19:05.101Z,6.90
2017-06-04T14:21:32.641Z,5.70
2017-06-04T14:24:00.209Z,6.10
2017-06-04T14:26:28.140Z,6.50
2017-06-04T14:28:55.688Z,6.83
2017-06-04T14:31:23.253Z,6.13
2017-06-04T14:33:50.798Z,9.53
2017-06-04T14:36:18.460Z,6.43
2017-06-04T14:38:46.016Z,9.03
2017-06-04T14:41:13.551Z,6.20
2017-06-04T14:43:41.107Z,7.17
2017-06-04T14:46:08.667Z,5.80
2017-06-04T14:48:36.236Z,5.50
2017-06-04T14:51:03.767Z,6.63
2017-06-04T14:53:31.328Z,6.50
2017-06-04T14:55:58.876Z,6.20
2017-06-04T14:58:26.416Z,5.70
2017-06-04T15:00:53.976Z,6.57
2017-06-04T15:03:21.520Z,6.63
2017-06-04T15:05:49.083Z,6.37
2017-06-04T15:08:16.643Z,5.63
2017-06-04T15:10:44.184Z,6.57
2017-06-04T15:13:11.740Z,5.73
2017-06-04T15:15:39.695Z,6.23
2017-06-04T15:18:07.655Z,6.40
2017-06-04T15:20:35.224Z,6.70
2017-06-04T15:23:03.187Z,5.90
2017-06-04T15:25:30.748Z,5.80
2017-06-04T15:27:58.284Z,5.77
2017-06-04T15:30:25.869Z,5.93
2017-06-04T15:32:53.413Z,6.67
2017-06-04T15:35:20.953Z,5.53
2017-06-04T15:37:48.517Z,6.10
2017-06-04T15:40:16.055Z,5.40
2017-06-04T15:42:43.612Z,5.67
2017-06-04T15:45:11.175Z,5.40
2017-06-04T15:47:38.716Z,5.80
2017-06-04T15:50:06.675Z,6.00
2017-06-04T15:52:34.231Z,5.40
2017-06-04T15:55:01.795Z,5.50
2017-06-04T15:57:29.336Z,4.73
2017-06-04T15:59:56.887Z,5.33
2017-06-04T16:02:24.461Z,5.20
2017-06-04T16:04:51.995Z,5.80
2017-06-04T16:07:19.535Z,5.53
2017-06-04T16:09:47.109Z,5.47
2017-06-04T16:12:14.659Z,5.00
2017-06-04T16:14:42.196Z,5.73
2017-06-04T16:17:10.160Z,5.97
2017-06-04T16:19:38.100Z,4.83
2017-06-04T16:22:05.638Z,5.63
2017-06-04T16:24:33.200Z,5.07
2017-06-04T16:27:00.744Z,5.70
2017-06-04T16:29:28.288Z,6.10
2017-06-04T16:31:55.856Z,5.20
2017-06-04T16:34:23.396Z,5.27
2017-06-04T16:36:51.340Z,5.23
2017-06-04T16:39:18.907Z,4.97
2017-06-04T16:41:46.447Z,5.60
2017-06-04T16:44:13.982Z,4.77
2017-06-04T16:46:41.543Z,5.50
2017-06-04T16:49:09.133Z,5.57
2017-06-04T16:51:36.663Z,5.67
2017-06-04T16:54:04.236Z,5.67
2017-06-04T16:56:31.783Z,5.90
2017-06-04T16:58:59.323Z,5.70
2017-06-04T17:01:27.288Z,5.20
2017-06-04T17:03:55.215Z,5.90
2017-06-04T17:06:22.754Z,5.80
2017-06-04T17:08:50.330Z,6.20
2017-06-04T17:11:17.893Z,7.20
2017-06-04T17:13:45.440Z,5.97
2017-06-04T17:16:12.972Z,5.40
2017-06-04T17:18:40.541Z,6.37
2017-06-04T17:21:08.085Z,5.13
2017-06-04T17:23:36.016Z,5.70
2017-06-04T17:26:03.592Z,5.90
2017-06-04T17:28:31.131Z,6.50
2017-06-04T17:30:58.678Z,5.60
2017-06-04T17:33:26.244Z,6.57
2017-06-04T17:35:53.784Z,5.10
2017-06-04T17:38:21.328Z,6.60
2017-06-04T17:40:48.892Z,5.80
2017-06-04T17:43:16.434Z,5.43
2017-06-04T17:45:44.000Z,5.23
2017-06-04T17:48:11.564Z,6.13
2017-06-04T17:50:39.504Z,6.93
2017-06-04T17:53:07.041Z,5.00
2017-06-04T17:55:34.604Z,5.60
2017-06-04T17:58:02.146Z,5.40
2017-06-04T18:00:29.692Z,5.53
2017-06-04T18:02:57.248Z,6.00
2017-06-04T18:05:24.792Z,6.30
2017-06-04T18:07:52.729Z,5.60
2017-06-04T18:10:20.296Z,5.10
2017-06-04T18:12:47.838Z,5.63
2017-06-04T18:15:15.371Z,6.80
2017-06-04T18:17:42.941Z,5.87
2017-06-04T18:20:10.484Z,5.77
2017-06-04T18:22:38.038Z,5.63
2017-06-04T18:25:05.605Z,5.67
2017-06-04T18:27:33.162Z,5.67
2017-06-04T18:30:00.723Z,5.63
2017-06-04T18:32:28.296Z,5.70
2017-06-04T18:34:55.832Z,6.90
2017-06-04T18:37:23.364Z,6.37
2017-06-04T18:39:51.002Z,6.50
2017-06-04T18:42:18.560Z,5.70
2017-06-04T18:44:46.126Z,5.73
2017-06-04T18:47:13.815Z,6.70
2017-06-04T18:49:41.439Z,6.03
2017-06-04T18:52:09.019Z,5.47
2017-06-04T18:54:36.613Z,5.80
2017-06-04T18:57:04.159Z,7.00
2017-06-04T18:59:31.838Z,5.97
2017-06-04T19:01:59.854Z,6.57
2017-06-04T19:04:27.991Z,6.20
2017-06-04T19:06:56.024Z,6.50
2017-06-04T19:09:24.420Z,5.80
2017-06-04T19:11:53.009Z,5.57
2017-06-04T19:14:20.986Z,6.87
2017-06-04T19:16:49.489Z,6.00
2017-06-04T19:19:17.758Z,6.50
2017-06-04T19:21:45.749Z,6.13
2017-06-04T19:24:13.665Z,5.60
2017-06-04T19:26:41.406Z,6.60
2017-06-04T19:29:09.450Z,5.60
2017-06-04T19:31:37.395Z,6.47
2017-06-04T19:34:05.763Z,5.60
2017-06-04T19:36:34.146Z,6.20
2017-06-04T19:39:02.328Z,5.77
2017-06-04T19:41:30.327Z,7.43
2017-06-04T19:43:58.302Z,7.23
2017-06-04T19:46:26.273Z,7.30
2017-06-04T19:48:54.123Z,7.60
2017-06-04T19:51:22.318Z,7.80
2017-06-04T19:53:50.596Z,5.83
2017-06-04T19:56:19.044Z,7.50
2017-06-04T19:58:47.455Z,7.00
2017-06-04T20:01:15.838Z,7.40
2017-06-04T20:03:44.254Z,7.17
2017-06-04T20:06:12.621Z,8.03
2017-06-04T20:08:40.880Z,7.80
2017-06-04T20:11:09.007Z,6.90
2017-06-04T20:13:37.195Z,9.70
2017-06-04T20:16:05.274Z,9.43
2017-06-04T20:18:33.052Z,7.47
2017-06-04T20:21:00.850Z,7.83
2017-06-04T20:23:28.962Z,7.73
2017-06-04T20:25:56.954Z,7.70
2017-06-04T20:28:24.939Z,7.47
2017-06-04T20:30:53.298Z,7.43
2017-06-04T20:33:21.777Z,7.07
2017-06-04T20:35:49.998Z,7.20
2017-06-04T20:38:18.387Z,7.03
2017-06-04T20:40:46.513Z,6.87
2017-06-04T20:43:14.498Z,8.00
2017-06-04T20:45:42.612Z,7.53
2017-06-04T20:48:11.027Z,6.90
2017-06-04T20:50:39.111Z,7.20
2017-06-04T20:53:07.299Z,8.13
2017-06-04T20:55:35.332Z,7.67
2017-06-04T20:58:03.490Z,8.57
2017-06-04T21:00:32.205Z,8.83
2017-06-04T21:03:00.484Z,9.00
2017-06-04T21:05:28.765Z,9.57
2017-06-04T21:07:57.099Z,9.87
2017-06-04T21:10:25.544Z,10.43
2017-06-04T21:12:53.694Z,8.73
2017-06-04T21:15:22.210Z,8.63
2017-06-04T21:17:50.687Z,9.00
2017-06-04T21:20:18.790Z,9.97
2017-06-04T21:22:47.074Z,9.13
2017-06-04T21:25:15.076Z,10.73
2017-06-04T21:27:42.799Z,10.30
2017-06-04T21:30:10.630Z,9.50
2017-06-04T21:32:38.485Z,9.63
2017-06-04T21:35:06.138Z,9.10
2017-06-04T21:37:33.803Z,8.70
2017-06-04T21:40:01.399Z,8.50
2017-06-04T21:42:28.977Z,8.70
2017-06-04T21:44:56.577Z,8.80
2017-06-04T21:47:24.124Z,7.37
2017-06-04T21:49:51.668Z,8.97
2017-06-04T21:52:19.239Z,8.17
2017-06-04T21:54:46.806Z,8.10
2017-06-04T21:57:14.353Z,8.53
2017-06-04T21:59:41.937Z,7.83
2017-06-04T22:02:09.476Z,7.53
2017-06-04T22:04:37.052Z,8.20
2017-06-04T22:07:04.647Z,7.70
2017-06-04T22:09:32.201Z,8.50
2017-06-04T22:11:59.746Z,8.37
2017-06-04T22:14:27.325Z,7.70
2017-06-04T22:16:54.873Z,8.53
2017-06-04T22:19:22.444Z,8.57
2017-06-04T22:21:49.988Z,8.73
2017-06-04T22:24:17.535Z,7.97
2017-06-04T22:26:45.131Z,7.63
2017-06-04T22:29:12.677Z,8.13
2017-06-04T22:31:40.222Z,8.70
2017-06-04T22:34:07.795Z,8.70
2017-06-04T22:36:35.339Z,8.17
2017-06-04T22:39:02.909Z,10.23
2017-06-04T22:41:30.465Z,9.53
2017-06-04T22:43:58.018Z,10.57
2017-06-04T22:46:25.588Z,11.70
2017-06-04T22:48:53.128Z,10.63
2017-06-04T22:51:20.672Z,10.37
2017-06-04T22:53:48.645Z,10.00
2017-06-04T22:56:16.600Z,8.63
2017-06-04T22:58:44.544Z,8.93
2017-06-04T23:01:12.120Z,7.80
2017-06-04T23:03:39.669Z,8.17
2017-06-04T23:06:07.233Z,8.80
2017-06-04T23:08:34.802Z,7.77
2017-06-04T23:11:02.336Z,7.87
2017-06-04T23:13:29.893Z,8.60
2017-06-04T23:15:57.465Z,7.80
2017-06-04T23:18:25.017Z,9.17
2017-06-04T23:20:52.564Z,8.63
2017-06-04T23:23:20.146Z,8.80
2017-06-04T23:25:47.701Z,9.00
2017-06-04T23:28:15.248Z,8.53
2017-06-04T23:30:42.821Z,9.63
2017-06-04T23:33:10.370Z,8.40
2017-06-04T23:35:37.912Z,9.33
2017-06-04T23:38:05.927Z,8.03
2017-06-04T23:40:33.493Z,9.00
2017-06-04T23:43:01.036Z,8.70
2017-06-04T23:45:28.617Z,9.23
2017-06-04T23:47:56.194Z,8.57
2017-06-04T23:50:23.780Z,9.03
2017-06-04T23:52:51.735Z,8.47
2017-06-04T23:55:19.303Z,9.53
2017-06-04T23:57:47.268Z,8.20
